sensor_id;sensor_type;location;lat;lon;timestamp;temperature;humidity
8226;DHT22;4154;48.810;9.012;2024-01-15T00:01:58;-1.20;95.10
8226;DHT22;4154;48.810;9.012;2024-01-15T00:04:23;-1.10;95.30
8226;DHT22;4154;48.810;9.012;2024-01-15T00:06:49;-1.10;95.30
8226;DHT22;4154;48.810;9.012;2024-01-15T00:09:15;-1.10;95.30
8226;DHT22;4154;48.810;9.012;2024-01-15T00:11:42;-1.00;95.30
8226;DHT22;4154;48.810;9.012;2024-01-15T00:14:08;-1.00;95.20
8226;DHT22;4154;48.810;9.012;2024-01-15T00:16:34;-1.00;95.10
8226;DHT22;4154;48.810;9.012;2024-01-15T00:19:00;-0.90;95.20
8226;DHT22;4154;48.810;9.012;2024-01-15T00:21:26;-0.90;95.20
8226;DHT22;4154;48.810;9.012;2024-01-15T00:23:53;-0.90;99.90
8226;DHT22;4154;48.810;9.012;2024-01-15T00:26:19;-0.90;95.10
8226;DHT22;4154;48.810;9.012;2024-01-15T00:31:10;-1.00;95.10
8226;DHT22;4154;48.810;9.012;2024-01-15T00:33:36;-1.00;95.40
8226;DHT22;4154;48.810;9.012;2024-01-15T00:36:01;-1.00;95.50
8226;DHT22;4154;48.810;9.012;2024-01-15T00:38:28;-1.10;95.60
8226;DHT22;4154;48.810;9.012;2024-01-15T00:40:54;-1.00;95.70
8226;DHT22;4154;48.810;9.012;2024-01-15T00:43:20;-1.10;95.70
8226;DHT22;4154;48.810;9.012;2024-01-15T00:45:46;-1.00;95.80
8226;DHT22;4154;48.810;9.012;2024-01-15T00:48:12;-1.00;95.70
8226;DHT22;4154;48.810;9.012;2024-01-15T00:50:37;-0.90;95.80
8226;DHT22;4154;48.810;9.012;2024-01-15T00:53:03;-0.90;95.80
8226;DHT22;4154;48.810;9.012;2024-01-15T00:55:29;-0.90;95.70
8226;DHT22;4154;48.810;9.012;2024-01-15T00:57:55;-0.80;95.80
8226;DHT22;4154;48.810;9.012;2024-01-15T01:00:20;-0.70;95.80
8226;DHT22;4154;48.810;9.012;2024-01-15T01:02:46;-0.90;99.90
8226;DHT22;4154;48.810;9.012;2024-01-15T01:05:12;-0.60;99.90
8226;DHT22;4154;48.810;9.012;2024-01-15T01:07:38;-0.60;95.60
8226;DHT22;4154;48.810;9.012;2024-01-15T01:10:04;-0.70;95.60
8226;DHT22;4154;48.810;9.012;2024-01-15T01:12:30;-0.60;95.60
8226;DHT22;4154;48.810;9.012;2024-01-15T01:14:56;-0.50;95.70
8226;DHT22;4154;48.810;9.012;2024-01-15T01:17:22;-0.50;95.60
8226;DHT22;4154;48.810;9.012;2024-01-15T01:19:49;-0.50;95.70
8226;DHT22;4154;48.810;9.012;2024-01-15T01:22:15;-0.50;95.70
8226;DHT22;4154;48.810;9.012;2024-01-15T01:24:40;-0.50;95.70
8226;DHT22;4154;48.810;9.012;2024-01-15T01:29:32;-0.70;95.60
8226;DHT22;4154;48.810;9.012;2024-01-15T01:31:58;-0.60;95.90
8226;DHT22;4154;48.810;9.012;2024-01-15T01:34:24;-0.50;96.00
8226;DHT22;4154;48.810;9.012;2024-01-15T01:36:50;-0.50;96.00
8226;DHT22;4154;48.810;9.012;2024-01-15T01:39:15;-0.50;96.00
8226;DHT22;4154;48.810;9.012;2024-01-15T01:41:41;-0.50;95.90
8226;DHT22;4154;48.810;9.012;2024-01-15T01:44:07;-0.50;95.90
8226;DHT22;4154;48.810;9.012;2024-01-15T01:46:34;-0.50;95.70
8226;DHT22;4154;48.810;9.012;2024-01-15T01:49:06;-0.50;95.80
8226;DHT22;4154;48.810;9.012;2024-01-15T01:51:35;-0.50;95.90
8226;DHT22;4154;48.810;9.012;2024-01-15T01:54:03;-0.50;95.90
8226;DHT22;4154;48.810;9.012;2024-01-15T01:56:30;-0.50;96.20
8226;DHT22;4154;48.810;9.012;2024-01-15T01:58:56;-0.50;96.00
8226;DHT22;4154;48.810;9.012;2024-01-15T02:01:22;-0.40;95.90
8226;DHT22;4154;48.810;9.012;2024-01-15T02:03:48;-0.40;95.80
8226;DHT22;4154;48.810;9.012;2024-01-15T02:06:14;-0.50;95.70
8226;DHT22;4154;48.810;9.012;2024-01-15T02:08:43;-0.40;99.90
8226;DHT22;4154;48.810;9.012;2024-01-15T02:11:09;-0.50;95.70
8226;DHT22;4154;48.810;9.012;2024-01-15T02:13:34;-0.50;95.70
8226;DHT22;4154;48.810;9.012;2024-01-15T02:16:00;-0.50;95.70
8226;DHT22;4154;48.810;9.012;2024-01-15T02:18:26;-0.50;95.70
8226;DHT22;4154;48.810;9.012;2024-01-15T02:20:51;-0.50;95.70
8226;DHT22;4154;48.810;9.012;2024-01-15T02:23:17;-0.50;95.70
8226;DHT22;4154;48.810;9.012;2024-01-15T02:25:44;-0.70;95.90
8226;DHT22;4154;48.810;9.012;2024-01-15T02:28:12;-0.60;95.80
8226;DHT22;4154;48.810;9.012;2024-01-15T02:30:40;-0.50;95.80
8226;DHT22;4154;48.810;9.012;2024-01-15T02:33:07;-0.50;95.70
8226;DHT22;4154;48.810;9.012;2024-01-15T02:35:34;-0.50;99.90
8226;DHT22;4154;48.810;9.012;2024-01-15T02:38:02;-0.50;95.80
8226;DHT22;4154;48.810;9.012;2024-01-15T02:40:29;-0.50;95.70
8226;DHT22;4154;48.810;9.012;2024-01-15T02:42:54;-0.50;95.80
8226;DHT22;4154;48.810;9.012;2024-01-15T02:45:21;-0.60;95.90
8226;DHT22;4154;48.810;9.012;2024-01-15T02:47:47;-0.60;95.90
8226;DHT22;4154;48.810;9.012;2024-01-15T02:50:13;-0.60;95.90
8226;DHT22;4154;48.810;9.012;2024-01-15T02:52:38;-0.70;96.00
8226;DHT22;4154;48.810;9.012;2024-01-15T02:55:04;-0.60;96.10
8226;DHT22;4154;48.810;9.012;2024-01-15T02:57:31;-0.60;96.10
8226;DHT22;4154;48.810;9.012;2024-01-15T02:59:56;-0.60;96.20
8226;DHT22;4154;48.810;9.012;2024-01-15T03:02:22;-0.60;96.10
8226;DHT22;4154;48.810;9.012;2024-01-15T03:04:48;-0.50;96.10
8226;DHT22;4154;48.810;9.012;2024-01-15T03:07:13;-0.60;96.00
8226;DHT22;4154;48.810;9.012;2024-01-15T03:09:39;-0.50;96.10
8226;DHT22;4154;48.810;9.012;2024-01-15T03:12:05;-0.60;96.00
8226;DHT22;4154;48.810;9.012;2024-01-15T03:14:31;-0.50;96.10
8226;DHT22;4154;48.810;9.012;2024-01-15T03:16:56;-0.50;99.90
8226;DHT22;4154;48.810;9.012;2024-01-15T03:19:22;-0.40;99.90
8226;DHT22;4154;48.810;9.012;2024-01-15T03:21:48;-0.50;96.10
8226;DHT22;4154;48.810;9.012;2024-01-15T03:24:14;-0.50;96.10
8226;DHT22;4154;48.810;9.012;2024-01-15T03:26:39;-0.50;96.00
8226;DHT22;4154;48.810;9.012;2024-01-15T03:29:05;-0.50;96.00
8226;DHT22;4154;48.810;9.012;2024-01-15T03:31:31;-0.40;96.00
8226;DHT22;4154;48.810;9.012;2024-01-15T03:33:57;-0.40;95.90
8226;DHT22;4154;48.810;9.012;2024-01-15T03:36:23;-0.40;95.90
8226;DHT22;4154;48.810;9.012;2024-01-15T03:38:48;-0.30;99.90
8226;DHT22;4154;48.810;9.012;2024-01-15T03:41:14;-0.20;95.90
8226;DHT22;4154;48.810;9.012;2024-01-15T03:43:40;-0.10;95.80
8226;DHT22;4154;48.810;9.012;2024-01-15T03:46:05;-0.10;95.70
8226;DHT22;4154;48.810;9.012;2024-01-15T03:48:32;-0.20;95.70
8226;DHT22;4154;48.810;9.012;2024-01-15T03:50:57;-0.20;95.70
8226;DHT22;4154;48.810;9.012;2024-01-15T03:55:49;0.00;95.60
8226;DHT22;4154;48.810;9.012;2024-01-15T03:58:15;0.00;95.70
8226;DHT22;4154;48.810;9.012;2024-01-15T04:00:42;0.10;95.60
8226;DHT22;4154;48.810;9.012;2024-01-15T04:03:08;0.10;95.50
8226;DHT22;4154;48.810;9.012;2024-01-15T04:05:33;0.10;95.40
8226;DHT22;4154;48.810;9.012;2024-01-15T04:07:59;0.00;95.50
8226;DHT22;4154;48.810;9.012;2024-01-15T04:10:25;0.00;95.60
8226;DHT22;4154;48.810;9.012;2024-01-15T04:12:51;0.00;95.50
8226;DHT22;4154;48.810;9.012;2024-01-15T04:15:16;0.10;95.40
8226;DHT22;4154;48.810;9.012;2024-01-15T04:17:42;0.00;95.40
8226;DHT22;4154;48.810;9.012;2024-01-15T04:20:08;0.00;95.40
8226;DHT22;4154;48.810;9.012;2024-01-15T04:22:35;0.10;95.50
8226;DHT22;4154;48.810;9.012;2024-01-15T04:25:01;0.10;95.50
8226;DHT22;4154;48.810;9.012;2024-01-15T04:27:27;0.20;95.60
8226;DHT22;4154;48.810;9.012;2024-01-15T04:29:52;0.20;95.60
8226;DHT22;4154;48.810;9.012;2024-01-15T04:32:18;0.30;95.50
8226;DHT22;4154;48.810;9.012;2024-01-15T04:34:44;0.30;95.40
8226;DHT22;4154;48.810;9.012;2024-01-15T04:37:10;0.30;99.90
8226;DHT22;4154;48.810;9.012;2024-01-15T04:39:36;0.40;95.40
8226;DHT22;4154;48.810;9.012;2024-01-15T04:42:02;0.40;95.40
8226;DHT22;4154;48.810;9.012;2024-01-15T04:44:28;0.40;95.30
8226;DHT22;4154;48.810;9.012;2024-01-15T04:46:54;0.30;99.90
8226;DHT22;4154;48.810;9.012;2024-01-15T04:49:20;0.40;95.30
8226;DHT22;4154;48.810;9.012;2024-01-15T04:51:45;0.40;99.90
8226;DHT22;4154;48.810;9.012;2024-01-15T04:54:11;0.40;95.30
8226;DHT22;4154;48.810;9.012;2024-01-15T04:56:37;0.50;95.00
8226;DHT22;4154;48.810;9.012;2024-01-15T04:59:03;0.60;95.00
8226;DHT22;4154;48.810;9.012;2024-01-15T05:01:32;0.70;94.90
8226;DHT22;4154;48.810;9.012;2024-01-15T05:03:58;0.60;94.80
8226;DHT22;4154;48.810;9.012;2024-01-15T05:06:24;0.60;94.90
8226;DHT22;4154;48.810;9.012;2024-01-15T05:08:50;0.60;94.90
8226;DHT22;4154;48.810;9.012;2024-01-15T05:11:16;0.60;95.00
8226;DHT22;4154;48.810;9.012;2024-01-15T05:13:41;0.60;95.00
8226;DHT22;4154;48.810;9.012;2024-01-15T05:16:07;0.60;95.20
8226;DHT22;4154;48.810;9.012;2024-01-15T05:18:33;0.60;95.30
8226;DHT22;4154;48.810;9.012;2024-01-15T05:20:59;0.50;95.30
8226;DHT22;4154;48.810;9.012;2024-01-15T05:23:24;0.50;95.40
8226;DHT22;4154;48.810;9.012;2024-01-15T05:25:50;0.50;95.50
8226;DHT22;4154;48.810;9.012;2024-01-15T05:28:16;0.50;95.50
8226;DHT22;4154;48.810;9.012;2024-01-15T05:30:42;0.60;95.60
8226;DHT22;4154;48.810;9.012;2024-01-15T05:33:07;0.50;95.60
8226;DHT22;4154;48.810;9.012;2024-01-15T05:35:34;0.50;95.70
8226;DHT22;4154;48.810;9.012;2024-01-15T05:38:00;0.50;95.80
8226;DHT22;4154;48.810;9.012;2024-01-15T05:40:26;0.50;95.80
8226;DHT22;4154;48.810;9.012;2024-01-15T05:42:51;0.50;95.70
8226;DHT22;4154;48.810;9.012;2024-01-15T05:45:17;0.50;95.70
8226;DHT22;4154;48.810;9.012;2024-01-15T05:47:42;0.60;95.60
8226;DHT22;4154;48.810;9.012;2024-01-15T05:50:09;0.50;95.60
8226;DHT22;4154;48.810;9.012;2024-01-15T05:52:35;0.60;95.60
8226;DHT22;4154;48.810;9.012;2024-01-15T05:55:01;0.60;95.60
8226;DHT22;4154;48.810;9.012;2024-01-15T05:57:26;0.50;95.60
8226;DHT22;4154;48.810;9.012;2024-01-15T05:59:52;0.50;95.60
8226;DHT22;4154;48.810;9.012;2024-01-15T06:02:18;0.50;95.60
8226;DHT22;4154;48.810;9.012;2024-01-15T06:04:43;0.40;95.60
8226;DHT22;4154;48.810;9.012;2024-01-15T06:07:09;0.30;99.90
8226;DHT22;4154;48.810;9.012;2024-01-15T06:09:35;0.40;95.80
8226;DHT22;4154;48.810;9.012;2024-01-15T06:12:00;0.50;95.70
8226;DHT22;4154;48.810;9.012;2024-01-15T06:14:26;0.50;95.60
8226;DHT22;4154;48.810;9.012;2024-01-15T06:16:52;0.40;99.90
8226;DHT22;4154;48.810;9.012;2024-01-15T06:19:18;0.50;95.60
8226;DHT22;4154;48.810;9.012;2024-01-15T06:21:43;0.50;95.50
8226;DHT22;4154;48.810;9.012;2024-01-15T06:24:09;0.50;95.40
8226;DHT22;4154;48.810;9.012;2024-01-15T06:26:35;0.50;95.50
8226;DHT22;4154;48.810;9.012;2024-01-15T06:29:01;0.50;95.30
8226;DHT22;4154;48.810;9.012;2024-01-15T06:31:28;0.50;95.40
8226;DHT22;4154;48.810;9.012;2024-01-15T06:33:55;0.50;95.40
8226;DHT22;4154;48.810;9.012;2024-01-15T06:36:21;0.50;95.40
8226;DHT22;4154;48.810;9.012;2024-01-15T06:38:47;0.50;95.40
8226;DHT22;4154;48.810;9.012;2024-01-15T06:41:12;0.50;95.40
8226;DHT22;4154;48.810;9.012;2024-01-15T06:43:38;0.50;95.50
8226;DHT22;4154;48.810;9.012;2024-01-15T06:46:04;0.50;95.40
8226;DHT22;4154;48.810;9.012;2024-01-15T06:48:30;0.50;95.30
8226;DHT22;4154;48.810;9.012;2024-01-15T06:50:55;0.50;95.40
8226;DHT22;4154;48.810;9.012;2024-01-15T06:53:21;0.50;95.40
8226;DHT22;4154;48.810;9.012;2024-01-15T06:55:48;0.50;95.40
8226;DHT22;4154;48.810;9.012;2024-01-15T06:58:14;0.40;95.40
8226;DHT22;4154;48.810;9.012;2024-01-15T07:03:06;0.50;95.20
8226;DHT22;4154;48.810;9.012;2024-01-15T07:05:32;0.50;95.30
8226;DHT22;4154;48.810;9.012;2024-01-15T07:07:58;0.40;95.30
8226;DHT22;4154;48.810;9.012;2024-01-15T07:10:24;0.40;95.40
8226;DHT22;4154;48.810;9.012;2024-01-15T07:12:49;0.50;95.40
8226;DHT22;4154;48.810;9.012;2024-01-15T07:15:15;0.50;95.40
8226;DHT22;4154;48.810;9.012;2024-01-15T07:17:41;0.50;95.30
8226;DHT22;4154;48.810;9.012;2024-01-15T07:20:08;0.60;95.20
8226;DHT22;4154;48.810;9.012;2024-01-15T07:22:37;0.50;95.20
8226;DHT22;4154;48.810;9.012;2024-01-15T07:25:04;0.50;95.10
8226;DHT22;4154;48.810;9.012;2024-01-15T07:27:35;0.60;95.00
8226;DHT22;4154;48.810;9.012;2024-01-15T07:30:01;0.50;95.10
8226;DHT22;4154;48.810;9.012;2024-01-15T07:32:29;0.60;95.10
8226;DHT22;4154;48.810;9.012;2024-01-15T07:34:56;0.60;95.10
8226;DHT22;4154;48.810;9.012;2024-01-15T07:37:22;0.60;95.00
8226;DHT22;4154;48.810;9.012;2024-01-15T07:39:48;0.60;94.90
8226;DHT22;4154;48.810;9.012;2024-01-15T07:42:14;0.70;94.80
8226;DHT22;4154;48.810;9.012;2024-01-15T07:44:40;0.70;94.70
8226;DHT22;4154;48.810;9.012;2024-01-15T07:47:06;0.70;99.90
8226;DHT22;4154;48.810;9.012;2024-01-15T07:49:31;0.70;99.90
8226;DHT22;4154;48.810;9.012;2024-01-15T07:51:57;0.90;99.90
8226;DHT22;4154;48.810;9.012;2024-01-15T07:54:23;0.80;94.40
8226;DHT22;4154;48.810;9.012;2024-01-15T07:57:00;0.80;94.30
8226;DHT22;4154;48.810;9.012;2024-01-15T07:59:27;0.80;94.20
8226;DHT22;4154;48.810;9.012;2024-01-15T08:01:53;0.90;94.10
8226;DHT22;4154;48.810;9.012;2024-01-15T08:04:19;0.90;94.10
8226;DHT22;4154;48.810;9.012;2024-01-15T08:06:45;0.90;94.00
8226;DHT22;4154;48.810;9.012;2024-01-15T08:09:11;0.90;94.00
8226;DHT22;4154;48.810;9.012;2024-01-15T08:11:42;0.90;94.00
8226;DHT22;4154;48.810;9.012;2024-01-15T08:14:09;0.90;94.00
8226;DHT22;4154;48.810;9.012;2024-01-15T08:16:38;1.00;93.90
8226;DHT22;4154;48.810;9.012;2024-01-15T08:21:30;1.00;93.40
8226;DHT22;4154;48.810;9.012;2024-01-15T08:23:58;1.00;93.70
8226;DHT22;4154;48.810;9.012;2024-01-15T08:26:25;0.90;93.70
8226;DHT22;4154;48.810;9.012;2024-01-15T08:28:51;1.00;93.60
8226;DHT22;4154;48.810;9.012;2024-01-15T08:31:17;1.00;93.50
8226;DHT22;4154;48.810;9.012;2024-01-15T08:33:43;1.10;93.60
8226;DHT22;4154;48.810;9.012;2024-01-15T08:36:09;1.10;93.50
8226;DHT22;4154;48.810;9.012;2024-01-15T08:38:35;1.00;93.30
8226;DHT22;4154;48.810;9.012;2024-01-15T08:41:01;1.10;93.10
8226;DHT22;4154;48.810;9.012;2024-01-15T08:43:27;1.10;93.10
8226;DHT22;4154;48.810;9.012;2024-01-15T08:45:55;1.10;92.80
8226;DHT22;4154;48.810;9.012;2024-01-15T08:48:24;1.20;93.00
8226;DHT22;4154;48.810;9.012;2024-01-15T08:50:53;1.10;93.20
8226;DHT22;4154;48.810;9.012;2024-01-15T08:53:20;1.10;93.10
8226;DHT22;4154;48.810;9.012;2024-01-15T08:55:45;1.20;93.00
8226;DHT22;4154;48.810;9.012;2024-01-15T08:58:11;1.20;93.00
8226;DHT22;4154;48.810;9.012;2024-01-15T09:00:37;1.20;93.00
8226;DHT22;4154;48.810;9.012;2024-01-15T09:03:03;1.30;92.70
8226;DHT22;4154;48.810;9.012;2024-01-15T09:05:29;1.20;92.50
8226;DHT22;4154;48.810;9.012;2024-01-15T09:07:55;1.20;92.80
8226;DHT22;4154;48.810;9.012;2024-01-15T09:10:21;1.30;92.90
8226;DHT22;4154;48.810;9.012;2024-01-15T09:12:46;1.20;92.80
8226;DHT22;4154;48.810;9.012;2024-01-15T09:15:12;1.20;92.80
8226;DHT22;4154;48.810;9.012;2024-01-15T09:17:38;1.20;93.00
8226;DHT22;4154;48.810;9.012;2024-01-15T09:20:04;1.20;92.90
8226;DHT22;4154;48.810;9.012;2024-01-15T09:22:31;1.20;93.00
8226;DHT22;4154;48.810;9.012;2024-01-15T09:24:57;1.20;93.10
8226;DHT22;4154;48.810;9.012;2024-01-15T09:27:24;1.30;93.10
8226;DHT22;4154;48.810;9.012;2024-01-15T09:29:53;1.40;93.00
8226;DHT22;4154;48.810;9.012;2024-01-15T09:32:19;1.40;92.90
8226;DHT22;4154;48.810;9.012;2024-01-15T09:34:48;1.40;93.00
8226;DHT22;4154;48.810;9.012;2024-01-15T09:37:14;1.50;93.00
8226;DHT22;4154;48.810;9.012;2024-01-15T09:42:07;1.50;92.80
8226;DHT22;4154;48.810;9.012;2024-01-15T09:44:34;1.50;93.10
8226;DHT22;4154;48.810;9.012;2024-01-15T09:47:00;1.40;98.70
8226;DHT22;4154;48.810;9.012;2024-01-15T09:49:26;1.40;93.10
8226;DHT22;4154;48.810;9.012;2024-01-15T09:54:20;1.40;92.90
8226;DHT22;4154;48.810;9.012;2024-01-15T09:56:47;1.40;93.00
8226;DHT22;4154;48.810;9.012;2024-01-15T09:59:17;1.40;93.00
8226;DHT22;4154;48.810;9.012;2024-01-15T10:01:47;1.50;93.20
8226;DHT22;4154;48.810;9.012;2024-01-15T10:04:15;1.50;93.00
8226;DHT22;4154;48.810;9.012;2024-01-15T10:06:45;1.50;92.80
8226;DHT22;4154;48.810;9.012;2024-01-15T10:09:14;1.50;92.90
8226;DHT22;4154;48.810;9.012;2024-01-15T10:11:42;1.60;93.10
8226;DHT22;4154;48.810;9.012;2024-01-15T10:14:09;1.60;92.90
8226;DHT22;4154;48.810;9.012;2024-01-15T10:16:38;1.70;92.90
8226;DHT22;4154;48.810;9.012;2024-01-15T10:21:32;1.70;92.60
8226;DHT22;4154;48.810;9.012;2024-01-15T10:24:01;1.70;92.80
8226;DHT22;4154;48.810;9.012;2024-01-15T10:26:28;1.70;92.80
8226;DHT22;4154;48.810;9.012;2024-01-15T10:28:54;1.80;92.70
8226;DHT22;4154;48.810;9.012;2024-01-15T10:31:20;1.90;92.80
8226;DHT22;4154;48.810;9.012;2024-01-15T10:33:50;2.00;98.40
8226;DHT22;4154;48.810;9.012;2024-01-15T10:36:17;1.90;92.60
8226;DHT22;4154;48.810;9.012;2024-01-15T10:38:44;1.90;92.70
8226;DHT22;4154;48.810;9.012;2024-01-15T10:41:10;1.90;92.70
8226;DHT22;4154;48.810;9.012;2024-01-15T10:43:36;1.90;92.80
8226;DHT22;4154;48.810;9.012;2024-01-15T10:46:02;1.90;92.90
8226;DHT22;4154;48.810;9.012;2024-01-15T10:48:28;1.90;93.20
8226;DHT22;4154;48.810;9.012;2024-01-15T10:50:56;1.80;93.00
8226;DHT22;4154;48.810;9.012;2024-01-15T10:53:26;1.90;93.10
8226;DHT22;4154;48.810;9.012;2024-01-15T10:55:53;1.90;93.30
8226;DHT22;4154;48.810;9.012;2024-01-15T10:58:20;1.90;93.30
8226;DHT22;4154;48.810;9.012;2024-01-15T11:00:47;1.90;93.50
8226;DHT22;4154;48.810;9.012;2024-01-15T11:03:13;2.10;93.80
8226;DHT22;4154;48.810;9.012;2024-01-15T11:05:42;2.10;94.20
8226;DHT22;4154;48.810;9.012;2024-01-15T11:08:09;2.00;94.80
8226;DHT22;4154;48.810;9.012;2024-01-15T11:10:50;1.80;95.20
8226;DHT22;4154;48.810;9.012;2024-01-15T11:13:22;1.80;95.50
8226;DHT22;4154;48.810;9.012;2024-01-15T11:16:07;1.80;95.60
8226;DHT22;4154;48.810;9.012;2024-01-15T11:18:40;1.80;96.00
8226;DHT22;4154;48.810;9.012;2024-01-15T11:23:58;1.80;99.90
8226;DHT22;4154;48.810;9.012;2024-01-15T11:26:50;1.80;96.60
8226;DHT22;4154;48.810;9.012;2024-01-15T11:32:03;1.70;96.30
8226;DHT22;4154;48.810;9.012;2024-01-15T11:34:49;1.70;96.60
8226;DHT22;4154;48.810;9.012;2024-01-15T11:40:22;1.60;96.60
8226;DHT22;4154;48.810;9.012;2024-01-15T11:42:59;1.70;96.80
8226;DHT22;4154;48.810;9.012;2024-01-15T11:45:25;1.70;96.80
8226;DHT22;4154;48.810;9.012;2024-01-15T11:50:47;1.70;97.00
8226;DHT22;4154;48.810;9.012;2024-01-15T11:53:33;1.70;97.10
8226;DHT22;4154;48.810;9.012;2024-01-15T11:56:16;1.70;97.10
8226;DHT22;4154;48.810;9.012;2024-01-15T11:58:43;1.70;97.30
8226;DHT22;4154;48.810;9.012;2024-01-15T12:01:13;1.60;97.40
8226;DHT22;4154;48.810;9.012;2024-01-15T12:03:39;1.60;97.30
8226;DHT22;4154;48.810;9.012;2024-01-15T12:06:09;1.60;97.30
8226;DHT22;4154;48.810;9.012;2024-01-15T12:08:35;1.60;97.20
8226;DHT22;4154;48.810;9.012;2024-01-15T12:11:10;1.60;97.30
8226;DHT22;4154;48.810;9.012;2024-01-15T12:13:39;1.50;97.60
8226;DHT22;4154;48.810;9.012;2024-01-15T12:16:05;1.50;97.80
8226;DHT22;4154;48.810;9.012;2024-01-15T12:18:30;1.40;97.90
8226;DHT22;4154;48.810;9.012;2024-01-15T12:20:57;1.50;98.10
8226;DHT22;4154;48.810;9.012;2024-01-15T12:23:24;1.50;98.20
8226;DHT22;4154;48.810;9.012;2024-01-15T12:25:50;1.60;98.30
8226;DHT22;4154;48.810;9.012;2024-01-15T12:28:15;1.60;98.40
8226;DHT22;4154;48.810;9.012;2024-01-15T12:30:41;1.60;98.60
8226;DHT22;4154;48.810;9.012;2024-01-15T12:33:08;1.50;98.70
8226;DHT22;4154;48.810;9.012;2024-01-15T12:35:34;1.50;99.90
8226;DHT22;4154;48.810;9.012;2024-01-15T12:38:01;1.50;98.80
8226;DHT22;4154;48.810;9.012;2024-01-15T12:40:32;1.50;99.90
8226;DHT22;4154;48.810;9.012;2024-01-15T12:42:59;1.50;99.20
8226;DHT22;4154;48.810;9.012;2024-01-15T12:45:25;1.30;99.30
8226;DHT22;4154;48.810;9.012;2024-01-15T12:47:51;1.40;99.40
8226;DHT22;4154;48.810;9.012;2024-01-15T12:50:18;1.40;99.60
8226;DHT22;4154;48.810;9.012;2024-01-15T12:52:44;1.40;99.60
8226;DHT22;4154;48.810;9.012;2024-01-15T12:55:09;1.40;99.70
8226;DHT22;4154;48.810;9.012;2024-01-15T12:57:36;1.40;99.70
8226;DHT22;4154;48.810;9.012;2024-01-15T13:00:03;1.50;99.80
8226;DHT22;4154;48.810;9.012;2024-01-15T13:02:37;1.50;99.80
8226;DHT22;4154;48.810;9.012;2024-01-15T13:05:05;1.60;99.80
8226;DHT22;4154;48.810;9.012;2024-01-15T13:07:32;1.60;99.80
8226;DHT22;4154;48.810;9.012;2024-01-15T13:09:58;1.70;99.90
8226;DHT22;4154;48.810;9.012;2024-01-15T13:12:24;1.70;99.90
8226;DHT22;4154;48.810;9.012;2024-01-15T13:14:49;1.70;99.80
8226;DHT22;4154;48.810;9.012;2024-01-15T13:17:15;1.60;99.80
8226;DHT22;4154;48.810;9.012;2024-01-15T13:19:41;1.60;99.80
8226;DHT22;4154;48.810;9.012;2024-01-15T13:22:06;1.60;99.80
8226;DHT22;4154;48.810;9.012;2024-01-15T13:24:32;1.60;99.80
8226;DHT22;4154;48.810;9.012;2024-01-15T13:26:58;1.70;99.90
8226;DHT22;4154;48.810;9.012;2024-01-15T13:29:23;1.70;99.90
8226;DHT22;4154;48.810;9.012;2024-01-15T13:31:49;1.60;99.80
8226;DHT22;4154;48.810;9.012;2024-01-15T13:36:41;1.70;99.70
8226;DHT22;4154;48.810;9.012;2024-01-15T13:39:06;1.60;99.80
8226;DHT22;4154;48.810;9.012;2024-01-15T13:41:34;1.60;99.90
8226;DHT22;4154;48.810;9.012;2024-01-15T13:44:01;1.60;99.90
8226;DHT22;4154;48.810;9.012;2024-01-15T13:46:26;1.60;99.90
8226;DHT22;4154;48.810;9.012;2024-01-15T13:48:52;1.60;99.90
8226;DHT22;4154;48.810;9.012;2024-01-15T13:51:21;1.50;99.90
8226;DHT22;4154;48.810;9.012;2024-01-15T13:53:47;1.50;99.90
8226;DHT22;4154;48.810;9.012;2024-01-15T13:56:13;1.50;99.50
8226;DHT22;4154;48.810;9.012;2024-01-15T13:58:38;1.50;99.50
8226;DHT22;4154;48.810;9.012;2024-01-15T14:03:31;1.50;99.20
8226;DHT22;4154;48.810;9.012;2024-01-15T14:05:57;1.40;99.20
8226;DHT22;4154;48.810;9.012;2024-01-15T14:08:23;1.30;99.40
8226;DHT22;4154;48.810;9.012;2024-01-15T14:10:49;1.30;99.50
8226;DHT22;4154;48.810;9.012;2024-01-15T14:13:15;1.30;99.20
8226;DHT22;4154;48.810;9.012;2024-01-15T14:15:40;1.30;99.90
8226;DHT22;4154;48.810;9.012;2024-01-15T14:18:06;1.30;99.00
8226;DHT22;4154;48.810;9.012;2024-01-15T14:20:32;1.10;99.10
8226;DHT22;4154;48.810;9.012;2024-01-15T14:25:24;1.10;98.60
8226;DHT22;4154;48.810;9.012;2024-01-15T14:27:50;1.20;98.60
8226;DHT22;4154;48.810;9.012;2024-01-15T14:30:16;1.10;98.60
8226;DHT22;4154;48.810;9.012;2024-01-15T14:35:08;1.00;98.70
8226;DHT22;4154;48.810;9.012;2024-01-15T14:37:38;0.90;99.10
8226;DHT22;4154;48.810;9.012;2024-01-15T14:40:05;0.90;99.40
8226;DHT22;4154;48.810;9.012;2024-01-15T14:49:56;0.70;99.60
8226;DHT22;4154;48.810;9.012;2024-01-15T14:54:49;0.50;99.70
8226;DHT22;4154;48.810;9.012;2024-01-15T14:57:15;0.50;99.90
8226;DHT22;4154;48.810;9.012;2024-01-15T14:59:40;0.60;99.60
8226;DHT22;4154;48.810;9.012;2024-01-15T15:02:06;0.60;99.50
8226;DHT22;4154;48.810;9.012;2024-01-15T15:04:32;0.60;99.20
8226;DHT22;4154;48.810;9.012;2024-01-15T15:06:58;0.70;99.90
8226;DHT22;4154;48.810;9.012;2024-01-15T15:09:23;0.60;98.50
8226;DHT22;4154;48.810;9.012;2024-01-15T15:11:49;0.60;98.50
8226;DHT22;4154;48.810;9.012;2024-01-15T15:14:17;0.60;98.30
8226;DHT22;4154;48.810;9.012;2024-01-15T15:16:43;0.60;98.30
8226;DHT22;4154;48.810;9.012;2024-01-15T15:19:09;0.50;98.20
8226;DHT22;4154;48.810;9.012;2024-01-15T15:24:00;0.50;97.70
8226;DHT22;4154;48.810;9.012;2024-01-15T15:26:27;0.50;97.60
8226;DHT22;4154;48.810;9.012;2024-01-15T15:28:52;0.50;97.20
8226;DHT22;4154;48.810;9.012;2024-01-15T15:31:18;0.50;99.90
8226;DHT22;4154;48.810;9.012;2024-01-15T15:33:43;0.50;97.20
8226;DHT22;4154;48.810;9.012;2024-01-15T15:36:09;0.50;96.80
8226;DHT22;4154;48.810;9.012;2024-01-15T15:38:35;0.40;99.90
8226;DHT22;4154;48.810;9.012;2024-01-15T15:43:28;0.50;96.20
8226;DHT22;4154;48.810;9.012;2024-01-15T15:45:54;0.50;96.30
8226;DHT22;4154;48.810;9.012;2024-01-15T15:48:21;0.60;96.50
8226;DHT22;4154;48.810;9.012;2024-01-15T15:50:46;1.20;99.90
8226;DHT22;4154;48.810;9.012;2024-01-15T15:53:12;0.50;96.30
8226;DHT22;4154;48.810;9.012;2024-01-15T15:55:38;0.50;96.40
8226;DHT22;4154;48.810;9.012;2024-01-15T15:58:05;0.50;96.50
8226;DHT22;4154;48.810;9.012;2024-01-15T16:00:31;0.50;96.50
8226;DHT22;4154;48.810;9.012;2024-01-15T16:02:57;0.50;96.50
8226;DHT22;4154;48.810;9.012;2024-01-15T16:05:23;0.60;96.40
8226;DHT22;4154;48.810;9.012;2024-01-15T16:07:49;0.60;96.10
8226;DHT22;4154;48.810;9.012;2024-01-15T16:10:15;0.50;96.40
8226;DHT22;4154;48.810;9.012;2024-01-15T16:12:42;0.50;96.50
8226;DHT22;4154;48.810;9.012;2024-01-15T16:15:20;0.50;96.60
8226;DHT22;4154;48.810;9.012;2024-01-15T16:17:47;0.50;96.70
8226;DHT22;4154;48.810;9.012;2024-01-15T16:20:13;0.50;96.70
8226;DHT22;4154;48.810;9.012;2024-01-15T16:22:39;0.50;96.60
8226;DHT22;4154;48.810;9.012;2024-01-15T16:25:04;0.40;96.60
8226;DHT22;4154;48.810;9.012;2024-01-15T16:27:30;0.40;96.70
8226;DHT22;4154;48.810;9.012;2024-01-15T16:29:56;0.50;96.80
8226;DHT22;4154;48.810;9.012;2024-01-15T16:32:21;0.50;97.00
8226;DHT22;4154;48.810;9.012;2024-01-15T16:34:47;0.50;96.60
8226;DHT22;4154;48.810;9.012;2024-01-15T16:37:13;0.60;96.30
8226;DHT22;4154;48.810;9.012;2024-01-15T16:39:38;0.60;96.10
8226;DHT22;4154;48.810;9.012;2024-01-15T16:42:05;0.60;96.30
8226;DHT22;4154;48.810;9.012;2024-01-15T16:44:30;0.50;96.40
8226;DHT22;4154;48.810;9.012;2024-01-15T16:46:56;0.50;99.90
8226;DHT22;4154;48.810;9.012;2024-01-15T16:49:24;0.50;96.40
8226;DHT22;4154;48.810;9.012;2024-01-15T16:51:50;0.50;96.60
8226;DHT22;4154;48.810;9.012;2024-01-15T16:54:16;0.50;96.60
8226;DHT22;4154;48.810;9.012;2024-01-15T16:56:43;0.50;96.70
8226;DHT22;4154;48.810;9.012;2024-01-15T16:59:10;0.60;96.70
8226;DHT22;4154;48.810;9.012;2024-01-15T17:01:35;0.50;99.90
8226;DHT22;4154;48.810;9.012;2024-01-15T17:04:01;0.50;96.90
8226;DHT22;4154;48.810;9.012;2024-01-15T17:06:26;0.50;96.80